sensor_id;sensor_type;location;lat;lon;timestamp;temperature;humidity
14049;DHT22;7099;53.922;10.728;2022-12-07T00:01:45;3.20;99.90
14049;DHT22;7099;53.922;10.728;2022-12-07T00:05:51;3.20;99.90
14049;DHT22;7099;53.922;10.728;2022-12-07T00:09:56;3.20;99.90
14049;DHT22;7099;53.922;10.728;2022-12-07T00:14:03;3.30;99.90
14049;DHT22;7099;53.922;10.728;2022-12-07T00:18:11;3.30;99.90
14049;DHT22;7099;53.922;10.728;2022-12-07T00:22:16;3.30;99.90
14049;DHT22;7099;53.922;10.728;2022-12-07T00:26:23;3.30;99.90
14049;DHT22;7099;53.922;10.728;2022-12-07T00:30:30;3.30;99.90
14049;DHT22;7099;53.922;10.728;2022-12-07T00:34:35;3.40;99.90
14049;DHT22;7099;53.922;10.728;2022-12-07T00:38:40;3.40;99.90
14049;DHT22;7099;53.922;10.728;2022-12-07T00:42:45;3.40;99.90
14049;DHT22;7099;53.922;10.728;2022-12-07T00:46:50;3.50;99.90
14049;DHT22;7099;53.922;10.728;2022-12-07T00:50:56;3.50;99.90
14049;DHT22;7099;53.922;10.728;2022-12-07T00:55:01;3.50;99.90
14049;DHT22;7099;53.922;10.728;2022-12-07T00:59:06;3.50;99.90
14049;DHT22;7099;53.922;10.728;2022-12-07T01:03:12;3.60;99.90
14049;DHT22;7099;53.922;10.728;2022-12-07T01:07:19;3.60;99.90
14049;DHT22;7099;53.922;10.728;2022-12-07T01:11:26;3.70;99.90
14049;DHT22;7099;53.922;10.728;2022-12-07T01:15:33;3.70;99.90
14049;DHT22;7099;53.922;10.728;2022-12-07T01:19:37;3.70;99.90
14049;DHT22;7099;53.922;10.728;2022-12-07T01:23:43;3.70;99.90
14049;DHT22;7099;53.922;10.728;2022-12-07T01:27:47;3.80;99.90
14049;DHT22;7099;53.922;10.728;2022-12-07T01:31:52;3.80;99.90
14049;DHT22;7099;53.922;10.728;2022-12-07T01:40:20;3.80;99.90
14049;DHT22;7099;53.922;10.728;2022-12-07T01:44:27;3.80;99.90
14049;DHT22;7099;53.922;10.728;2022-12-07T01:48:41;3.80;99.90
14049;DHT22;7099;53.922;10.728;2022-12-07T01:52:49;3.90;99.90
14049;DHT22;7099;53.922;10.728;2022-12-07T01:56:56;3.90;99.90
14049;DHT22;7099;53.922;10.728;2022-12-07T02:01:02;3.90;99.90
14049;DHT22;7099;53.922;10.728;2022-12-07T02:05:07;3.90;99.90
14049;DHT22;7099;53.922;10.728;2022-12-07T02:09:12;3.90;99.90
14049;DHT22;7099;53.922;10.728;2022-12-07T02:13:24;3.90;99.90
14049;DHT22;7099;53.922;10.728;2022-12-07T02:17:49;4.00;99.90
14049;DHT22;7099;53.922;10.728;2022-12-07T02:31:20;4.10;99.90
14049;DHT22;7099;53.922;10.728;2022-12-07T02:35:46;4.10;99.90
14049;DHT22;7099;53.922;10.728;2022-12-07T02:40:22;4.10;99.90
14049;DHT22;7099;53.922;10.728;2022-12-07T02:44:32;4.20;99.90
14049;DHT22;7099;53.922;10.728;2022-12-07T02:48:38;4.20;99.90
14049;DHT22;7099;53.922;10.728;2022-12-07T02:52:44;4.20;99.90
14049;DHT22;7099;53.922;10.728;2022-12-07T02:56:56;4.20;99.90
14049;DHT22;7099;53.922;10.728;2022-12-07T03:01:30;4.30;99.90
14049;DHT22;7099;53.922;10.728;2022-12-07T03:05:58;4.30;99.90
14049;DHT22;7099;53.922;10.728;2022-12-07T03:15:16;4.30;99.90
14049;DHT22;7099;53.922;10.728;2022-12-07T03:19:26;4.30;99.90
14049;DHT22;7099;53.922;10.728;2022-12-07T03:23:34;4.20;99.90
14049;DHT22;7099;53.922;10.728;2022-12-07T03:27:52;4.30;99.90
14049;DHT22;7099;53.922;10.728;2022-12-07T03:32:08;4.30;99.90
14049;DHT22;7099;53.922;10.728;2022-12-07T03:36:28;4.30;99.90
14049;DHT22;7099;53.922;10.728;2022-12-07T03:40:47;4.30;99.90
14049;DHT22;7099;53.922;10.728;2022-12-07T03:44:56;4.30;99.90
14049;DHT22;7099;53.922;10.728;2022-12-07T03:54:00;4.20;99.90
14049;DHT22;7099;53.922;10.728;2022-12-07T03:58:13;4.20;99.90
14049;DHT22;7099;53.922;10.728;2022-12-07T04:02:21;4.20;99.90
14049;DHT22;7099;53.922;10.728;2022-12-07T04:06:27;4.20;99.90
14049;DHT22;7099;53.922;10.728;2022-12-07T04:10:32;4.20;99.90
14049;DHT22;7099;53.922;10.728;2022-12-07T04:14:37;4.10;99.90
14049;DHT22;7099;53.922;10.728;2022-12-07T04:18:42;4.10;99.90
14049;DHT22;7099;53.922;10.728;2022-12-07T04:22:46;4.00;99.90
14049;DHT22;7099;53.922;10.728;2022-12-07T04:26:52;4.10;99.90
14049;DHT22;7099;53.922;10.728;2022-12-07T04:30:57;4.10;99.90
14049;DHT22;7099;53.922;10.728;2022-12-07T04:35:03;4.10;99.90
14049;DHT22;7099;53.922;10.728;2022-12-07T04:39:21;4.10;99.90
14049;DHT22;7099;53.922;10.728;2022-12-07T04:43:27;4.10;99.90
14049;DHT22;7099;53.922;10.728;2022-12-07T04:47:32;4.00;99.90
14049;DHT22;7099;53.922;10.728;2022-12-07T04:51:37;4.00;99.90
14049;DHT22;7099;53.922;10.728;2022-12-07T04:55:43;4.00;99.90
14049;DHT22;7099;53.922;10.728;2022-12-07T04:59:48;3.90;99.90
14049;DHT22;7099;53.922;10.728;2022-12-07T05:03:53;3.90;99.90
14049;DHT22;7099;53.922;10.728;2022-12-07T05:07:58;3.90;99.90
14049;DHT22;7099;53.922;10.728;2022-12-07T05:12:03;3.80;99.90
14049;DHT22;7099;53.922;10.728;2022-12-07T05:16:08;3.80;99.90
14049;DHT22;7099;53.922;10.728;2022-12-07T05:20:13;3.70;99.90
14049;DHT22;7099;53.922;10.728;2022-12-07T05:24:18;3.70;99.90
14049;DHT22;7099;53.922;10.728;2022-12-07T05:28:23;3.70;99.90
14049;DHT22;7099;53.922;10.728;2022-12-07T05:32:28;3.60;99.90
14049;DHT22;7099;53.922;10.728;2022-12-07T05:36:33;3.60;99.90
14049;DHT22;7099;53.922;10.728;2022-12-07T05:40:38;3.50;99.90
14049;DHT22;7099;53.922;10.728;2022-12-07T05:44:45;3.40;99.90
14049;DHT22;7099;53.922;10.728;2022-12-07T05:48:50;3.40;99.90
14049;DHT22;7099;53.922;10.728;2022-12-07T05:52:55;3.30;99.90
14049;DHT22;7099;53.922;10.728;2022-12-07T05:57:00;3.30;99.90
14049;DHT22;7099;53.922;10.728;2022-12-07T06:01:05;3.30;99.90
14049;DHT22;7099;53.922;10.728;2022-12-07T06:05:10;3.70;99.90
14049;DHT22;7099;53.922;10.728;2022-12-07T06:09:15;3.50;99.90
14049;DHT22;7099;53.922;10.728;2022-12-07T06:13:20;3.30;99.90
14049;DHT22;7099;53.922;10.728;2022-12-07T06:17:25;3.20;99.90
14049;DHT22;7099;53.922;10.728;2022-12-07T06:21:30;3.20;99.90
14049;DHT22;7099;53.922;10.728;2022-12-07T06:25:35;3.20;99.90
14049;DHT22;7099;53.922;10.728;2022-12-07T06:29:40;3.20;99.90
14049;DHT22;7099;53.922;10.728;2022-12-07T06:33:45;3.20;99.90
14049;DHT22;7099;53.922;10.728;2022-12-07T06:37:50;3.10;99.90
14049;DHT22;7099;53.922;10.728;2022-12-07T06:41:56;3.10;99.90
14049;DHT22;7099;53.922;10.728;2022-12-07T06:46:01;3.10;99.90
14049;DHT22;7099;53.922;10.728;2022-12-07T06:50:06;3.10;99.90
14049;DHT22;7099;53.922;10.728;2022-12-07T06:54:13;3.10;99.90
14049;DHT22;7099;53.922;10.728;2022-12-07T06:58:19;3.10;99.90
14049;DHT22;7099;53.922;10.728;2022-12-07T07:02:24;3.00;99.90
14049;DHT22;7099;53.922;10.728;2022-12-07T07:06:29;2.90;99.90
14049;DHT22;7099;53.922;10.728;2022-12-07T07:10:34;2.90;99.90
14049;DHT22;7099;53.922;10.728;2022-12-07T07:14:39;2.90;99.90
14049;DHT22;7099;53.922;10.728;2022-12-07T07:18:44;2.90;99.90
14049;DHT22;7099;53.922;10.728;2022-12-07T07:22:49;2.80;99.90
14049;DHT22;7099;53.922;10.728;2022-12-07T07:26:54;2.80;99.90
14049;DHT22;7099;53.922;10.728;2022-12-07T07:30:59;2.80;99.90
14049;DHT22;7099;53.922;10.728;2022-12-07T07:35:05;2.80;99.90
14049;DHT22;7099;53.922;10.728;2022-12-07T07:39:11;2.70;99.90
14049;DHT22;7099;53.922;10.728;2022-12-07T07:43:18;2.80;99.90
14049;DHT22;7099;53.922;10.728;2022-12-07T07:47:23;2.70;99.90
14049;DHT22;7099;53.922;10.728;2022-12-07T07:51:35;2.70;99.90
14049;DHT22;7099;53.922;10.728;2022-12-07T07:55:40;2.70;99.90
14049;DHT22;7099;53.922;10.728;2022-12-07T07:59:44;2.60;99.90
14049;DHT22;7099;53.922;10.728;2022-12-07T08:03:50;2.60;99.90
14049;DHT22;7099;53.922;10.728;2022-12-07T08:07:54;2.60;99.90
14049;DHT22;7099;53.922;10.728;2022-12-07T08:12:00;2.60;99.90
14049;DHT22;7099;53.922;10.728;2022-12-07T08:16:07;2.60;99.90
14049;DHT22;7099;53.922;10.728;2022-12-07T08:20:13;2.60;99.90
14049;DHT22;7099;53.922;10.728;2022-12-07T08:24:18;2.60;99.90
14049;DHT22;7099;53.922;10.728;2022-12-07T08:28:23;2.60;99.90
14049;DHT22;7099;53.922;10.728;2022-12-07T08:32:28;2.60;99.90
14049;DHT22;7099;53.922;10.728;2022-12-07T09:03:18;2.90;99.90
14049;DHT22;7099;53.922;10.728;2022-12-07T09:07:23;2.90;99.90
14049;DHT22;7099;53.922;10.728;2022-12-07T09:11:29;2.90;99.90
14049;DHT22;7099;53.922;10.728;2022-12-07T09:15:34;3.00;99.90
14049;DHT22;7099;53.922;10.728;2022-12-07T09:19:39;3.00;99.90
14049;DHT22;7099;53.922;10.728;2022-12-07T09:23:45;3.10;99.90
14049;DHT22;7099;53.922;10.728;2022-12-07T09:27:57;3.10;99.90
14049;DHT22;7099;53.922;10.728;2022-12-07T09:32:02;3.20;99.90
14049;DHT22;7099;53.922;10.728;2022-12-07T09:36:14;3.20;99.90
14049;DHT22;7099;53.922;10.728;2022-12-07T09:40:21;3.20;99.90
14049;DHT22;7099;53.922;10.728;2022-12-07T09:44:27;3.30;99.90
14049;DHT22;7099;53.922;10.728;2022-12-07T09:48:36;3.30;99.90
14049;DHT22;7099;53.922;10.728;2022-12-07T09:52:43;3.40;99.90
14049;DHT22;7099;53.922;10.728;2022-12-07T09:56:49;3.40;99.90
14049;DHT22;7099;53.922;10.728;2022-12-07T10:01:01;3.50;99.90
14049;DHT22;7099;53.922;10.728;2022-12-07T10:05:24;3.50;99.90
14049;DHT22;7099;53.922;10.728;2022-12-07T10:09:30;3.50;99.90
14049;DHT22;7099;53.922;10.728;2022-12-07T10:13:42;3.60;99.90
14049;DHT22;7099;53.922;10.728;2022-12-07T10:17:52;3.60;99.90
14049;DHT22;7099;53.922;10.728;2022-12-07T10:22:13;3.60;99.90
14049;DHT22;7099;53.922;10.728;2022-12-07T10:31:01;3.70;99.90
14049;DHT22;7099;53.922;10.728;2022-12-07T10:35:28;3.70;99.90
14049;DHT22;7099;53.922;10.728;2022-12-07T10:43:55;3.80;99.90
14049;DHT22;7099;53.922;10.728;2022-12-07T10:48:11;3.90;99.90
14049;DHT22;7099;53.922;10.728;2022-12-07T11:01:51;4.00;99.90
14049;DHT22;7099;53.922;10.728;2022-12-07T11:14:44;4.10;99.90
14049;DHT22;7099;53.922;10.728;2022-12-07T11:23:53;4.20;99.90
14049;DHT22;7099;53.922;10.728;2022-12-07T11:33:04;4.20;99.90
14049;DHT22;7099;53.922;10.728;2022-12-07T11:37:29;4.30;99.90
14049;DHT22;7099;53.922;10.728;2022-12-07T11:41:44;4.30;99.90
14049;DHT22;7099;53.922;10.728;2022-12-07T11:46:07;4.40;99.90
14049;DHT22;7099;53.922;10.728;2022-12-07T11:54:42;4.40;99.90
14049;DHT22;7099;53.922;10.728;2022-12-07T11:58:55;4.40;99.90
14049;DHT22;7099;53.922;10.728;2022-12-07T12:03:12;4.40;99.90
14049;DHT22;7099;53.922;10.728;2022-12-07T12:07:23;4.40;99.90
14049;DHT22;7099;53.922;10.728;2022-12-07T12:21:39;4.40;99.90
14049;DHT22;7099;53.922;10.728;2022-12-07T12:25:51;4.40;99.90
14049;DHT22;7099;53.922;10.728;2022-12-07T12:30:01;4.50;99.90
14049;DHT22;7099;53.922;10.728;2022-12-07T12:34:38;4.50;99.90
14049;DHT22;7099;53.922;10.728;2022-12-07T12:43:51;4.50;99.90
14049;DHT22;7099;53.922;10.728;2022-12-07T12:47:58;4.50;99.90
14049;DHT22;7099;53.922;10.728;2022-12-07T12:57:06;4.40;99.90
14049;DHT22;7099;53.922;10.728;2022-12-07T13:05:40;4.40;99.90
14049;DHT22;7099;53.922;10.728;2022-12-07T13:09:45;4.30;99.90
14049;DHT22;7099;53.922;10.728;2022-12-07T13:13:50;4.30;99.90
14049;DHT22;7099;53.922;10.728;2022-12-07T13:17:57;4.20;99.90
14049;DHT22;7099;53.922;10.728;2022-12-07T13:22:47;4.30;99.90
14049;DHT22;7099;53.922;10.728;2022-12-07T13:26:55;4.30;99.90
14049;DHT22;7099;53.922;10.728;2022-12-07T13:35:38;4.20;99.90
14049;DHT22;7099;53.922;10.728;2022-12-07T13:39:55;4.20;99.90
14049;DHT22;7099;53.922;10.728;2022-12-07T13:44:15;4.10;99.90
14049;DHT22;7099;53.922;10.728;2022-12-07T13:48:32;4.20;99.90
14049;DHT22;7099;53.922;10.728;2022-12-07T13:52:44;4.10;99.90
14049;DHT22;7099;53.922;10.728;2022-12-07T13:56:51;4.10;99.90
14049;DHT22;7099;53.922;10.728;2022-12-07T14:00:57;4.00;99.90
14049;DHT22;7099;53.922;10.728;2022-12-07T14:05:09;4.00;99.90
14049;DHT22;7099;53.922;10.728;2022-12-07T14:09:34;3.90;99.90
14049;DHT22;7099;53.922;10.728;2022-12-07T14:13:44;3.90;99.90
14049;DHT22;7099;53.922;10.728;2022-12-07T14:17:59;3.90;99.90
14049;DHT22;7099;53.922;10.728;2022-12-07T14:22:17;3.80;99.90
14049;DHT22;7099;53.922;10.728;2022-12-07T14:26:22;3.80;99.90
14049;DHT22;7099;53.922;10.728;2022-12-07T14:30:30;3.80;99.90
14049;DHT22;7099;53.922;10.728;2022-12-07T14:34:36;3.70;99.90
14049;DHT22;7099;53.922;10.728;2022-12-07T14:38:41;3.70;99.90
14049;DHT22;7099;53.922;10.728;2022-12-07T14:42:50;3.60;99.90
14049;DHT22;7099;53.922;10.728;2022-12-07T14:46:56;3.60;99.90
14049;DHT22;7099;53.922;10.728;2022-12-07T14:51:21;3.50;99.90
14049;DHT22;7099;53.922;10.728;2022-12-07T14:55:46;3.50;99.90
14049;DHT22;7099;53.922;10.728;2022-12-07T14:59:51;3.40;99.90
14049;DHT22;7099;53.922;10.728;2022-12-07T15:03:56;3.30;99.90
14049;DHT22;7099;53.922;10.728;2022-12-07T15:08:01;3.30;99.90
14049;DHT22;7099;53.922;10.728;2022-12-07T15:12:06;3.30;99.90
14049;DHT22;7099;53.922;10.728;2022-12-07T15:16:13;3.30;99.90
14049;DHT22;7099;53.922;10.728;2022-12-07T15:20:21;3.20;99.90
14049;DHT22;7099;53.922;10.728;2022-12-07T15:24:27;3.10;99.90
14049;DHT22;7099;53.922;10.728;2022-12-07T15:28:32;3.10;99.90
14049;DHT22;7099;53.922;10.728;2022-12-07T15:32:36;3.10;99.90
14049;DHT22;7099;53.922;10.728;2022-12-07T15:36:41;3.00;99.90
14049;DHT22;7099;53.922;10.728;2022-12-07T15:40:47;2.90;99.90
14049;DHT22;7099;53.922;10.728;2022-12-07T15:44:53;2.90;99.90
14049;DHT22;7099;53.922;10.728;2022-12-07T15:49:14;2.80;99.90
14049;DHT22;7099;53.922;10.728;2022-12-07T15:53:20;2.80;99.90
14049;DHT22;7099;53.922;10.728;2022-12-07T15:57:27;2.80;99.90
14049;DHT22;7099;53.922;10.728;2022-12-07T16:01:32;2.70;99.90
14049;DHT22;7099;53.922;10.728;2022-12-07T16:05:37;2.70;99.90
14049;DHT22;7099;53.922;10.728;2022-12-07T16:09:45;2.70;99.90
14049;DHT22;7099;53.922;10.728;2022-12-07T16:13:51;2.60;99.90
14049;DHT22;7099;53.922;10.728;2022-12-07T16:17:56;2.60;99.90
14049;DHT22;7099;53.922;10.728;2022-12-07T16:22:01;2.50;99.90
14049;DHT22;7099;53.922;10.728;2022-12-07T16:26:12;2.50;99.90
14049;DHT22;7099;53.922;10.728;2022-12-07T16:30:19;2.50;99.90
14049;DHT22;7099;53.922;10.728;2022-12-07T16:34:24;2.50;99.90
14049;DHT22;7099;53.922;10.728;2022-12-07T16:38:29;2.40;99.90
14049;DHT22;7099;53.922;10.728;2022-12-07T16:42:34;2.40;99.90
14049;DHT22;7099;53.922;10.728;2022-12-07T16:46:40;2.30;99.90
14049;DHT22;7099;53.922;10.728;2022-12-07T16:50:45;2.30;99.90
14049;DHT22;7099;53.922;10.728;2022-12-07T16:54:55;2.30;99.90
14049;DHT22;7099;53.922;10.728;2022-12-07T16:59:00;2.20;99.90
14049;DHT22;7099;53.922;10.728;2022-12-07T17:03:05;2.20;99.90
14049;DHT22;7099;53.922;10.728;2022-12-07T17:07:11;2.20;99.90
14049;DHT22;7099;53.922;10.728;2022-12-07T17:11:19;2.20;99.90
14049;DHT22;7099;53.922;10.728;2022-12-07T17:15:25;2.10;99.90
14049;DHT22;7099;53.922;10.728;2022-12-07T17:19:30;2.10;99.90
14049;DHT22;7099;53.922;10.728;2022-12-07T17:23:36;2.10;99.90
14049;DHT22;7099;53.922;10.728;2022-12-07T17:27:41;2.00;99.90
14049;DHT22;7099;53.922;10.728;2022-12-07T17:31:47;2.10;99.90
14049;DHT22;7099;53.922;10.728;2022-12-07T17:35:55;2.00;99.90
14049;DHT22;7099;53.922;10.728;2022-12-07T17:40:00;2.00;99.90
14049;DHT22;7099;53.922;10.728;2022-12-07T17:44:14;2.00;99.90
14049;DHT22;7099;53.922;10.728;2022-12-07T17:48:20;1.90;99.90
14049;DHT22;7099;53.922;10.728;2022-12-07T17:52:25;1.90;99.90
14049;DHT22;7099;53.922;10.728;2022-12-07T17:56:48;1.90;99.90
14049;DHT22;7099;53.922;10.728;2022-12-07T18:00:53;1.90;99.90
14049;DHT22;7099;53.922;10.728;2022-12-07T18:04:58;1.80;99.90
14049;DHT22;7099;53.922;10.728;2022-12-07T18:09:04;1.80;99.90
14049;DHT22;7099;53.922;10.728;2022-12-07T18:13:09;1.80;99.90
14049;DHT22;7099;53.922;10.728;2022-12-07T18:17:32;1.80;99.90
14049;DHT22;7099;53.922;10.728;2022-12-07T18:21:37;1.70;99.90
14049;DHT22;7099;53.922;10.728;2022-12-07T18:25:50;1.70;99.90
14049;DHT22;7099;53.922;10.728;2022-12-07T18:29:55;1.70;99.90
14049;DHT22;7099;53.922;10.728;2022-12-07T18:34:02;1.70;99.90
14049;DHT22;7099;53.922;10.728;2022-12-07T18:38:08;1.60;99.90
14049;DHT22;7099;53.922;10.728;2022-12-07T18:42:13;1.60;99.90
14049;DHT22;7099;53.922;10.728;2022-12-07T18:46:20;1.60;99.90
14049;DHT22;7099;53.922;10.728;2022-12-07T18:50:25;1.60;99.90
14049;DHT22;7099;53.922;10.728;2022-12-07T18:54:30;1.60;99.90
14049;DHT22;7099;53.922;10.728;2022-12-07T18:58:35;1.60;99.90
14049;DHT22;7099;53.922;10.728;2022-12-07T19:02:40;1.60;99.90
14049;DHT22;7099;53.922;10.728;2022-12-07T19:06:47;1.50;99.90
14049;DHT22;7099;53.922;10.728;2022-12-07T19:10:52;1.50;99.90
14049;DHT22;7099;53.922;10.728;2022-12-07T19:14:57;1.40;99.90
14049;DHT22;7099;53.922;10.728;2022-12-07T19:19:02;1.40;99.90
14049;DHT22;7099;53.922;10.728;2022-12-07T19:23:07;1.40;99.90
14049;DHT22;7099;53.922;10.728;2022-12-07T19:27:13;1.30;99.90
14049;DHT22;7099;53.922;10.728;2022-12-07T19:31:18;1.20;99.90
14049;DHT22;7099;53.922;10.728;2022-12-07T19:35:23;1.20;99.90
14049;DHT22;7099;53.922;10.728;2022-12-07T19:39:28;1.10;99.90
14049;DHT22;7099;53.922;10.728;2022-12-07T19:43:33;1.10;99.90
14049;DHT22;7099;53.922;10.728;2022-12-07T19:47:39;1.10;99.90
14049;DHT22;7099;53.922;10.728;2022-12-07T19:51:45;1.00;99.90
14049;DHT22;7099;53.922;10.728;2022-12-07T19:55:51;1.00;99.90
14049;DHT22;7099;53.922;10.728;2022-12-07T19:59:56;1.00;99.90
14049;DHT22;7099;53.922;10.728;2022-12-07T20:04:04;1.00;99.90
14049;DHT22;7099;53.922;10.728;2022-12-07T20:08:10;0.90;99.90
14049;DHT22;7099;53.922;10.728;2022-12-07T20:12:15;0.90;99.90
14049;DHT22;7099;53.922;10.728;2022-12-07T20:16:39;0.80;99.90
14049;DHT22;7099;53.922;10.728;2022-12-07T20:20:55;0.90;99.90
14049;DHT22;7099;53.922;10.728;2022-12-07T20:25:01;0.90;99.90
14049;DHT22;7099;53.922;10.728;2022-12-07T20:29:08;0.80;99.90
14049;DHT22;7099;53.922;10.728;2022-12-07T20:33:21;0.80;99.90
14049;DHT22;7099;53.922;10.728;2022-12-07T20:37:26;0.80;99.90
14049;DHT22;7099;53.922;10.728;2022-12-07T20:41:31;0.80;99.90
14049;DHT22;7099;53.922;10.728;2022-12-07T20:45:56;0.80;99.90
14049;DHT22;7099;53.922;10.728;2022-12-07T20:50:02;0.80;99.90
14049;DHT22;7099;53.922;10.728;2022-12-07T20:54:07;0.80;99.90
14049;DHT22;7099;53.922;10.728;2022-12-07T20:58:12;0.80;99.90
14049;DHT22;7099;53.922;10.728;2022-12-07T21:02:17;0.80;99.90
14049;DHT22;7099;53.922;10.728;2022-12-07T21:06:23;0.80;99.90
14049;DHT22;7099;53.922;10.728;2022-12-07T21:10:29;0.80;99.90
14049;DHT22;7099;53.922;10.728;2022-12-07T21:14:34;0.90;99.90
14049;DHT22;7099;53.922;10.728;2022-12-07T21:18:39;0.80;99.90
14049;DHT22;7099;53.922;10.728;2022-12-07T21:22:44;0.80;99.90
14049;DHT22;7099;53.922;10.728;2022-12-07T21:26:50;0.80;99.90
14049;DHT22;7099;53.922;10.728;2022-12-07T21:30:58;0.80;99.90
14049;DHT22;7099;53.922;10.728;2022-12-07T21:35:19;0.80;99.90
14049;DHT22;7099;53.922;10.728;2022-12-07T21:39:24;0.90;99.90
14049;DHT22;7099;53.922;10.728;2022-12-07T21:43:28;0.80;99.90
14049;DHT22;7099;53.922;10.728;2022-12-07T21:47:33;0.90;99.90
14049;DHT22;7099;53.922;10.728;2022-12-07T21:51:40;0.90;99.90
14049;DHT22;7099;53.922;10.728;2022-12-07T21:55:46;0.90;99.90
14049;DHT22;7099;53.922;10.728;2022-12-07T21:59:50;0.90;99.90
14049;DHT22;7099;53.922;10.728;2022-12-07T22:03:56;0.90;99.90
14049;DHT22;7099;53.922;10.728;2022-12-07T22:08:00;0.90;99.90
14049;DHT22;7099;53.922;10.728;2022-12-07T22:12:07;0.90;99.90
14049;DHT22;7099;53.922;10.728;2022-12-07T22:16:12;0.90;99.90
14049;DHT22;7099;53.922;10.728;2022-12-07T22:20:18;0.90;99.90
14049;DHT22;7099;53.922;10.728;2022-12-07T22:24:25;0.90;99.90
14049;DHT22;7099;53.922;10.728;2022-12-07T22:28:30;1.00;99.90
14049;DHT22;7099;53.922;10.728;2022-12-07T22:32:35;1.00;99.90
14049;DHT22;7099;53.922;10.728;2022-12-07T22:36:56;1.00;99.90
14049;DHT22;7099;53.922;10.728;2022-12-07T22:41:11;1.00;99.90
14049;DHT22;7099;53.922;10.728;2022-12-07T22:45:25;1.10;99.90
14049;DHT22;7099;53.922;10.728;2022-12-07T22:49:29;1.10;99.90
14049;DHT22;7099;53.922;10.728;2022-12-07T22:53:34;1.10;99.90
14049;DHT22;7099;53.922;10.728;2022-12-07T22:57:39;1.10;99.90
14049;DHT22;7099;53.922;10.728;2022-12-07T23:01:44;1.10;99.90
14049;DHT22;7099;53.922;10.728;2022-12-07T23:05:49;1.10;99.90
14049;DHT22;7099;53.922;10.728;2022-12-07T23:09:55;1.10;99.90
14049;DHT22;7099;53.922;10.728;2022-12-07T23:14:02;1.10;99.90
14049;DHT22;7099;53.922;10.728;2022-12-07T23:18:07;1.10;99.90
14049;DHT22;7099;53.922;10.728;2022-12-07T23:22:12;1.10;99.90
14049;DHT22;7099;53.922;10.728;2022-12-07T23:26:17;1.20;99.90
14049;DHT22;7099;53.922;10.728;2022-12-07T23:30:22;1.20;99.90
14049;DHT22;7099;53.922;10.728;2022-12-07T23:34:27;1.20;99.90
14049;DHT22;7099;53.922;10.728;2022-12-07T23:38:32;1.20;99.90
14049;DHT22;7099;53.922;10.728;2022-12-07T23:42:37;1.20;99.90
14049;DHT22;7099;53.922;10.728;2022-12-07T23:46:42;1.20;99.90
14049;DHT22;7099;53.922;10.728;2022-12-07T23:50:47;1.20;99.90
14049;DHT22;7099;53.922;10.728;2022-12-07T23:54:52;1.20;99.90
14049;DHT22;7099;53.922;10.728;2022-12-07T23:58:57;1.20;99.90
